createdAt,value
2018-08-05T00:00:25.619Z,95500.46
2018-08-05T00:02:54.572Z,95502.20
2018-08-05T00:05:23.567Z,95502.20
2018-08-05T00:07:52.584Z,95503.33
2018-08-05T00:10:21.527Z,95499.92
2018-08-05T00:12:50.551Z,95497.47
2018-08-05T00:15:19.537Z,95499.41
2018-08-05T00:17:48.577Z,95504.38
2018-08-05T00:20:17.581Z,95496.49
2018-08-05T00:22:46.518Z,95498.42
2018-08-05T00:25:15.469Z,95501.48
2018-08-05T00:27:44.441Z,95499.77
2018-08-05T00:30:13.782Z,95506.66
2018-08-05T00:32:43.058Z,95497.95
2018-08-05T00:35:12.299Z,95496.49
2018-08-05T00:37:41.231Z,95497.85
2018-08-05T00:40:11.775Z,95500.06
2018-08-05T00:42:40.735Z,95497.66
2018-08-05T00:45:11.051Z,95494.55
2018-08-05T00:47:40.262Z,95497.61
2018-08-05T00:50:09.706Z,95495.59
2018-08-05T00:52:38.712Z,95497.42
2018-08-05T00:55:08.002Z,95497.47
2018-08-05T00:57:36.988Z,95497.39
2018-08-05T01:00:07.711Z,95498.09
2018-08-05T01:02:36.714Z,95502.19
2018-08-05T01:05:06.046Z,95506.95
2018-08-05T01:07:34.975Z,95508.50
2018-08-05T01:10:03.991Z,95506.63
2018-08-05T01:12:32.998Z,95511.48
2018-08-05T01:15:02.027Z,95510.59
2018-08-05T01:17:31.010Z,95507.67
2018-08-05T01:20:00.075Z,95510.35
2018-08-05T01:22:29.027Z,95508.12
2018-08-05T01:24:58.019Z,95505.47
2018-08-05T01:27:27.071Z,95501.95
2018-08-05T01:29:56.050Z,95502.09
2018-08-05T01:32:25.086Z,95505.66
2018-08-05T01:34:54.099Z,95509.13
2018-08-05T01:37:23.052Z,95512.47
2018-08-05T01:39:52.081Z,95506.42
2018-08-05T01:42:21.060Z,95506.20
2018-08-05T01:44:50.031Z,95502.34
2018-08-05T01:47:19.019Z,95499.08
2018-08-05T01:49:47.992Z,95496.14
2018-08-05T01:52:16.970Z,95497.07
2018-08-05T01:54:45.950Z,95495.78
2018-08-05T01:57:14.943Z,95498.42
2018-08-05T01:59:43.927Z,95505.77
2018-08-05T02:02:12.919Z,95509.22
2018-08-05T02:04:42.861Z,95507.59
2018-08-05T02:07:11.839Z,95504.55
2018-08-05T02:09:40.806Z,95507.01
2018-08-05T02:12:09.855Z,95508.32
2018-08-05T02:14:38.800Z,95516.14
2018-08-05T02:17:07.786Z,95511.38
2018-08-05T02:19:36.767Z,95512.11
2018-08-05T02:22:05.933Z,95513.55
2018-08-05T02:24:34.999Z,95507.87
2018-08-05T02:27:04.015Z,95516.34
2018-08-05T02:29:32.966Z,95508.30
2018-08-05T02:32:01.968Z,95507.98
2018-08-05T02:34:30.946Z,95512.40
2018-08-05T02:36:59.911Z,95513.20
2018-08-05T02:39:28.880Z,95512.03
2018-08-05T02:41:57.863Z,95511.20
2018-08-05T02:44:26.811Z,95517.88
2018-08-05T02:46:55.822Z,95522.71
2018-08-05T02:49:24.781Z,95520.33
2018-08-05T02:51:53.755Z,95523.22
2018-08-05T02:54:22.786Z,95525.14
2018-08-05T02:56:51.752Z,95528.27
2018-08-05T02:59:20.910Z,95531.17
2018-08-05T03:01:49.874Z,95533.05
2018-08-05T03:04:18.906Z,95530.59
2018-08-05T03:06:47.967Z,95530.45
2018-08-05T03:09:17.010Z,95536.42
2018-08-05T03:11:45.957Z,95537.24
2018-08-05T03:14:14.896Z,95535.84
2018-08-05T03:16:43.889Z,95538.94
2018-08-05T03:19:12.858Z,95539.05
2018-08-05T03:21:41.831Z,95538.66
2018-08-05T03:24:10.819Z,95541.73
2018-08-05T03:26:39.779Z,95541.52
2018-08-05T03:29:08.838Z,95535.53
2018-08-05T03:31:37.791Z,95536.94
2018-08-05T03:34:06.864Z,95539.43
2018-08-05T03:36:35.794Z,95539.83
2018-08-05T03:39:07.075Z,95545.56
2018-08-05T03:41:36.082Z,95550.16
2018-08-05T03:44:05.119Z,95553.73
2018-08-05T03:46:34.121Z,95557.05
2018-08-05T03:49:03.106Z,95563.75
2018-08-05T03:51:32.113Z,95563.89
2018-08-05T03:54:01.093Z,95570.80
2018-08-05T03:56:30.033Z,95575.38
2018-08-05T03:58:59.050Z,95575.03
2018-08-05T04:01:27.991Z,95571.43
2018-08-05T04:03:58.050Z,95575.30
2018-08-05T04:06:26.974Z,95577.30
2018-08-05T04:08:56.204Z,95574.23
2018-08-05T04:11:25.197Z,95576.64
2018-08-05T04:13:54.168Z,95576.95
2018-08-05T04:16:23.108Z,95574.74
2018-08-05T04:18:52.076Z,95575.67
2018-08-05T04:21:21.059Z,95580.40
2018-08-05T04:23:50.000Z,95573.69
2018-08-05T04:26:19.029Z,95573.88
2018-08-05T04:28:47.947Z,95572.45
2018-08-05T04:31:16.929Z,95579.88
2018-08-05T04:33:45.887Z,95574.89
2018-08-05T04:36:14.992Z,95570.11
2018-08-05T04:38:43.959Z,95571.73
2018-08-05T04:41:12.951Z,95569.12
2018-08-05T04:43:41.878Z,95571.20
2018-08-05T04:46:10.956Z,95569.08
2018-08-05T04:48:39.923Z,95569.02
2018-08-05T04:51:08.923Z,95571.47
2018-08-05T04:53:37.867Z,95568.73
2018-08-05T04:56:06.933Z,95568.26
2018-08-05T04:58:35.868Z,95572.26
2018-08-05T05:01:04.825Z,95571.53
2018-08-05T05:03:33.817Z,95570.39
2018-08-05T05:06:02.787Z,95570.19
2018-08-05T05:08:31.764Z,95567.50
2018-08-05T05:11:00.728Z,95577.19
2018-08-05T05:13:29.677Z,95577.16
2018-08-05T05:15:58.678Z,95576.56
2018-08-05T05:18:27.779Z,95585.12
2018-08-05T05:20:56.804Z,95580.11
2018-08-05T05:23:25.755Z,95581.29
2018-08-05T05:25:54.734Z,95584.22
2018-08-05T05:28:23.755Z,95583.60
2018-08-05T05:30:52.737Z,95581.45
2018-08-05T05:33:21.871Z,95579.80
2018-08-05T05:35:50.847Z,95584.99
2018-08-05T05:38:19.805Z,95586.47
2018-08-05T05:40:48.907Z,95583.53
2018-08-05T05:43:17.902Z,95581.32
2018-08-05T05:45:46.878Z,95578.61
2018-08-05T05:48:16.012Z,95583.48
2018-08-05T05:50:45.025Z,95582.55
2018-08-05T05:53:14.029Z,95580.37
2018-08-05T05:55:43.050Z,95583.09
2018-08-05T05:58:12.136Z,95588.77
2018-08-05T06:00:41.088Z,95588.46
2018-08-05T06:03:10.098Z,95595.35
2018-08-05T06:05:39.178Z,95592.50
2018-08-05T06:08:08.181Z,95594.06
2018-08-05T06:10:37.140Z,95596.78
2018-08-05T06:13:06.451Z,95597.72
2018-08-05T06:15:35.495Z,95601.11
2018-08-05T06:18:04.507Z,95605.41
2018-08-05T06:20:33.474Z,95606.78
2018-08-05T06:23:02.469Z,95602.61
2018-08-05T06:25:31.418Z,95600.77
2018-08-05T06:28:00.433Z,95605.09
2018-08-05T06:30:29.371Z,95601.44
2018-08-05T06:32:58.324Z,95614.39
2018-08-05T06:35:27.324Z,95612.10
2018-08-05T06:37:56.335Z,95616.01
2018-08-05T06:40:25.371Z,95623.55
2018-08-05T06:42:55.337Z,95624.59
2018-08-05T06:45:24.349Z,95631.98
2018-08-05T06:47:53.307Z,95635.84
2018-08-05T06:50:22.324Z,95639.63
2018-08-05T06:52:51.511Z,95637.40
2018-08-05T06:55:20.521Z,95637.48
2018-08-05T06:57:49.498Z,95634.21
2018-08-05T07:00:18.472Z,95631.95
2018-08-05T07:02:47.506Z,95626.09
2018-08-05T07:05:16.497Z,95627.55
2018-08-05T07:07:45.499Z,95626.16
2018-08-05T07:10:14.476Z,95623.81
2018-08-05T07:12:43.498Z,95629.67
2018-08-05T07:15:12.561Z,95641.40
2018-08-05T07:17:41.575Z,95635.53
2018-08-05T07:20:10.766Z,95645.11
2018-08-05T07:22:40.502Z,95652.80
2018-08-05T07:25:12.019Z,95650.01
2018-08-05T07:27:42.514Z,95645.91
2018-08-05T07:30:14.365Z,95650.25
2018-08-05T07:32:44.664Z,95639.19
2018-08-05T07:35:14.766Z,95642.08
2018-08-05T07:37:44.882Z,95641.06
2018-08-05T07:40:15.761Z,95643.52
2018-08-05T07:42:45.846Z,95645.60
2018-08-05T07:45:14.887Z,95640.42
2018-08-05T07:47:43.991Z,95636.44
2018-08-05T07:50:14.084Z,95634.02
2018-08-05T07:52:43.111Z,95631.36
2018-08-05T07:55:12.220Z,95635.58
2018-08-05T07:57:41.324Z,95636.41
2018-08-05T08:00:13.074Z,95636.16
2018-08-05T08:02:43.008Z,95640.55
2018-08-05T08:05:12.695Z,95643.03
2018-08-05T08:07:42.572Z,95643.03
2018-08-05T08:10:12.471Z,95641.78
2018-08-05T08:12:41.649Z,95638.72
2018-08-05T08:15:11.765Z,95643.53
2018-08-05T08:17:41.398Z,95647.05
2018-08-05T08:20:11.135Z,95654.02
2018-08-05T08:22:40.325Z,95640.69
2018-08-05T08:25:09.761Z,95646.63
2018-08-05T08:27:38.860Z,95639.23
2018-08-05T08:30:09.965Z,95645.44
2018-08-05T08:32:39.070Z,95642.89
2018-08-05T08:35:08.891Z,95648.56
2018-08-05T08:37:38.201Z,95647.11
2018-08-05T08:40:09.204Z,95652.84
2018-08-05T08:42:38.211Z,95659.14
2018-08-05T08:45:09.285Z,95658.55
2018-08-05T08:47:38.302Z,95668.00
2018-08-05T08:50:08.158Z,95643.33
2018-08-05T08:52:37.340Z,95650.63
2018-08-05T08:55:06.659Z,95646.19
2018-08-05T08:57:35.753Z,95645.44
2018-08-05T09:00:06.388Z,95641.48
2018-08-05T09:02:35.416Z,95651.28
2018-08-05T09:05:04.787Z,95658.72
2018-08-05T09:07:33.746Z,95651.06
2018-08-05T09:10:02.784Z,95648.00
2018-08-05T09:12:31.816Z,95646.28
2018-08-05T09:15:00.828Z,95649.37
2018-08-05T09:17:29.852Z,95650.07
2018-08-05T09:19:58.956Z,95651.55
2018-08-05T09:22:27.990Z,95662.83
2018-08-05T09:24:57.046Z,95663.53
2018-08-05T09:27:26.389Z,95669.77
2018-08-05T09:29:55.379Z,95669.15
2018-08-05T09:32:24.408Z,95669.59
2018-08-05T09:34:53.431Z,95673.20
2018-08-05T09:37:22.378Z,95663.84
2018-08-05T09:39:51.395Z,95666.53
2018-08-05T09:42:20.414Z,95662.83
2018-08-05T09:44:49.498Z,95658.20
2018-08-05T09:47:18.547Z,95660.61
2018-08-05T09:49:47.627Z,95655.59
2018-08-05T09:52:16.743Z,95653.82
2018-08-05T09:54:45.748Z,95654.64
2018-08-05T09:57:14.833Z,95653.94
2018-08-05T09:59:43.844Z,95660.05
2018-08-05T10:02:12.858Z,95666.48
2018-08-05T10:04:41.928Z,95670.51
2018-08-05T10:07:10.987Z,95664.97
2018-08-05T10:09:40.038Z,95679.86
2018-08-05T10:12:09.100Z,95686.54
2018-08-05T10:14:38.132Z,95678.74
2018-08-05T10:17:07.158Z,95678.43
2018-08-05T10:19:36.255Z,95677.95
2018-08-05T10:22:05.290Z,95676.55
2018-08-05T10:24:34.328Z,95667.84
2018-08-05T10:27:03.405Z,95666.41
2018-08-05T10:29:32.400Z,95672.66
2018-08-05T10:32:01.407Z,95655.24
2018-08-05T10:34:30.448Z,95655.27
2018-08-05T10:36:59.470Z,95662.34
2018-08-05T10:39:28.536Z,95667.16
2018-08-05T10:41:57.543Z,95665.66
2018-08-05T10:44:26.593Z,95660.44
2018-08-05T10:46:55.764Z,95658.68
2018-08-05T10:49:25.718Z,95662.45
2018-08-05T10:51:54.785Z,95665.38
2018-08-05T10:54:23.826Z,95664.07
2018-08-05T10:56:52.940Z,95659.97
2018-08-05T10:59:22.134Z,95663.87
2018-08-05T11:01:51.179Z,95662.73
2018-08-05T11:04:20.195Z,95666.30
2018-08-05T11:06:49.279Z,95673.58
2018-08-05T11:09:19.161Z,95657.91
2018-08-05T11:11:48.300Z,95652.45
2018-08-05T11:14:17.299Z,95651.78
2018-08-05T11:16:46.445Z,95650.39
2018-08-05T11:19:15.615Z,95649.25
2018-08-05T11:21:44.722Z,95656.56
2018-08-05T11:24:13.744Z,95651.34
2018-08-05T11:26:42.875Z,95655.55
2018-08-05T11:29:11.920Z,95661.29
2018-08-05T11:31:41.231Z,95656.06
2018-08-05T11:34:10.347Z,95647.94
2018-08-05T11:36:39.378Z,95648.70
2018-08-05T11:39:10.269Z,95642.09
2018-08-05T11:41:39.431Z,95648.69
2018-08-05T11:44:08.537Z,95642.81
2018-08-05T11:46:37.583Z,95636.50
2018-08-05T11:49:09.655Z,95645.44
2018-08-05T11:51:39.314Z,95644.95
2018-08-05T11:54:08.336Z,95644.71
2018-08-05T11:56:37.403Z,95649.58
2018-08-05T11:59:06.634Z,95646.56
2018-08-05T12:01:35.697Z,95642.67
2018-08-05T12:04:04.702Z,95640.27
2018-08-05T12:06:33.686Z,95640.03
2018-08-05T12:09:02.759Z,95634.66
2018-08-05T12:11:31.769Z,95641.52
2018-08-05T12:14:00.855Z,95639.00
2018-08-05T12:16:29.826Z,95631.61
2018-08-05T12:18:58.902Z,95640.50
2018-08-05T12:21:27.971Z,95632.02
2018-08-05T12:23:56.915Z,95639.86
2018-08-05T12:26:25.923Z,95629.20
2018-08-05T12:28:54.939Z,95630.62
2018-08-05T12:31:23.851Z,95632.74
2018-08-05T12:33:53.107Z,95624.79
2018-08-05T12:36:22.104Z,95625.55
2018-08-05T12:38:51.219Z,95623.20
2018-08-05T12:41:20.267Z,95620.81
2018-08-05T12:43:50.031Z,95620.23
2018-08-05T12:46:19.041Z,95612.48
2018-08-05T12:48:48.066Z,95615.05
2018-08-05T12:51:22.363Z,95610.99
2018-08-05T12:53:51.654Z,95622.66
2018-08-05T12:56:20.738Z,95618.52
2018-08-05T12:58:49.764Z,95618.54
2018-08-05T13:01:18.791Z,95624.30
2018-08-05T13:03:47.851Z,95609.66
2018-08-05T13:06:16.912Z,95613.77
2018-08-05T13:08:45.970Z,95614.00
2018-08-05T13:11:14.994Z,95609.85
2018-08-05T13:13:44.034Z,95610.03
2018-08-05T13:16:13.065Z,95612.22
2018-08-05T13:18:42.119Z,95614.39
2018-08-05T13:21:11.130Z,95611.91
2018-08-05T13:23:40.156Z,95608.92
2018-08-05T13:26:09.186Z,95618.44
2018-08-05T13:28:38.183Z,95608.72
2018-08-05T13:31:07.261Z,95604.42
2018-08-05T13:33:36.316Z,95610.59
2018-08-05T13:36:05.366Z,95606.09
2018-08-05T13:38:34.366Z,95597.25
2018-08-05T13:41:03.426Z,95596.84
2018-08-05T13:43:32.558Z,95593.11
2018-08-05T13:46:01.659Z,95596.84
2018-08-05T13:48:30.672Z,95592.12
2018-08-05T13:50:59.802Z,95588.78
2018-08-05T13:53:28.828Z,95589.91
2018-08-05T13:55:57.887Z,95589.05
2018-08-05T13:58:26.975Z,95587.84
2018-08-05T14:00:56.042Z,95593.83
2018-08-05T14:03:25.033Z,95589.54
2018-08-05T14:05:54.115Z,95588.63
2018-08-05T14:08:23.362Z,95592.27
2018-08-05T14:10:52.466Z,95592.43
2018-08-05T14:13:21.498Z,95588.23
2018-08-05T14:15:50.550Z,95591.55
2018-08-05T14:18:19.615Z,95586.02
2018-08-05T14:20:48.683Z,95575.34
2018-08-05T14:23:17.711Z,95581.02
2018-08-05T14:25:46.754Z,95593.88
2018-08-05T14:28:15.799Z,95578.36
2018-08-05T14:30:45.859Z,95569.03
2018-08-05T14:33:15.043Z,95575.22
2018-08-05T14:35:44.198Z,95581.19
2018-08-05T14:38:13.251Z,95581.29
2018-08-05T14:40:42.307Z,95577.09
2018-08-05T14:43:11.424Z,95575.83
2018-08-05T14:45:40.487Z,95567.47
2018-08-05T14:48:14.705Z,95569.30
2018-08-05T14:50:43.747Z,95575.23
2018-08-05T14:53:12.834Z,95573.86
2018-08-05T14:55:41.863Z,95563.70
2018-08-05T14:58:10.862Z,95569.39
2018-08-05T15:00:39.850Z,95568.68
2018-08-05T15:03:08.852Z,95565.93
2018-08-05T15:05:37.897Z,95564.02
2018-08-05T15:08:06.935Z,95562.44
2018-08-05T15:10:35.911Z,95571.37
2018-08-05T15:13:04.915Z,95557.03
2018-08-05T15:15:34.251Z,95555.34
2018-08-05T15:18:03.308Z,95554.12
2018-08-05T15:20:32.343Z,95559.63
2018-08-05T15:23:01.376Z,95547.06
2018-08-05T15:25:30.406Z,95543.13
2018-08-05T15:27:59.447Z,95541.66
2018-08-05T15:30:28.452Z,95539.69
2018-08-05T15:32:57.475Z,95542.92
2018-08-05T15:35:26.560Z,95535.91
2018-08-05T15:37:55.524Z,95537.10
2018-08-05T15:40:25.677Z,95532.95
2018-08-05T15:42:54.673Z,95531.42
2018-08-05T15:45:23.817Z,95542.70
2018-08-05T15:47:52.840Z,95532.52
2018-08-05T15:50:21.878Z,95532.39
2018-08-05T15:52:50.910Z,95537.44
2018-08-05T15:55:19.923Z,95546.25
2018-08-05T15:57:49.021Z,95536.11
2018-08-05T16:00:18.037Z,95538.34
2018-08-05T16:02:47.040Z,95546.61
2018-08-05T16:05:16.072Z,95545.33
2018-08-05T16:07:45.156Z,95546.89
2018-08-05T16:10:14.222Z,95542.30
2018-08-05T16:12:43.238Z,95534.18
2018-08-05T16:15:12.284Z,95545.91
2018-08-05T16:17:41.327Z,95530.02
2018-08-05T16:20:10.405Z,95536.30
2018-08-05T16:22:39.439Z,95527.48
2018-08-05T16:25:08.478Z,95528.50
2018-08-05T16:27:37.456Z,95530.72
2018-08-05T16:30:07.038Z,95526.19
2018-08-05T16:32:36.114Z,95532.12
2018-08-05T16:35:05.182Z,95535.34
2018-08-05T16:37:34.194Z,95536.38
2018-08-05T16:40:03.210Z,95537.45
2018-08-05T16:42:32.272Z,95536.09
2018-08-05T16:45:01.268Z,95526.26
2018-08-05T16:47:31.211Z,95530.25
2018-08-05T16:50:00.268Z,95527.77
2018-08-05T16:52:29.281Z,95530.50
2018-08-05T16:54:58.364Z,95527.47
2018-08-05T16:57:27.359Z,95532.11
2018-08-05T16:59:56.438Z,95523.17
2018-08-05T17:02:25.451Z,95527.94
2018-08-05T17:04:54.450Z,95530.50
2018-08-05T17:07:23.438Z,95527.98
2018-08-05T17:09:52.439Z,95531.94
2018-08-05T17:12:21.471Z,95529.34
2018-08-05T17:14:51.526Z,95527.59
2018-08-05T17:17:20.489Z,95528.45
2018-08-05T17:19:49.564Z,95525.58
2018-08-05T17:22:18.557Z,95521.28
2018-08-05T17:24:47.596Z,95521.05
2018-08-05T17:27:16.611Z,95525.11
2018-08-05T17:29:45.616Z,95522.69
2018-08-05T17:32:14.613Z,95514.89
2018-08-05T17:34:43.709Z,95520.90
2018-08-05T17:37:12.711Z,95517.25
2018-08-05T17:39:41.728Z,95518.85
2018-08-05T17:42:10.991Z,95512.88
2018-08-05T17:44:39.981Z,95509.77
2018-08-05T17:47:09.129Z,95519.44
2018-08-05T17:49:38.067Z,95510.91
2018-08-05T17:52:07.063Z,95506.09
2018-08-05T17:54:36.073Z,95508.41
2018-08-05T17:57:05.291Z,95516.77
2018-08-05T17:59:34.418Z,95514.89
2018-08-05T18:02:03.388Z,95512.47
2018-08-05T18:04:32.448Z,95519.66
2018-08-05T18:07:01.439Z,95520.67
2018-08-05T18:09:30.486Z,95512.00
2018-08-05T18:11:59.483Z,95518.20
2018-08-05T18:14:28.520Z,95513.78
2018-08-05T18:16:57.591Z,95517.61
2018-08-05T18:19:26.625Z,95522.30
2018-08-05T18:21:55.652Z,95517.44
2018-08-05T18:24:24.617Z,95522.19
2018-08-05T18:26:53.649Z,95520.31
2018-08-05T18:29:22.946Z,95523.14
2018-08-05T18:31:51.955Z,95522.48
2018-08-05T18:34:21.057Z,95521.20
2018-08-05T18:36:50.067Z,95522.28
2018-08-05T18:39:19.049Z,95514.88
2018-08-05T18:41:47.991Z,95520.05
2018-08-05T18:44:16.954Z,95513.16
2018-08-05T18:46:45.875Z,95511.80
2018-08-05T18:49:14.911Z,95518.08
2018-08-05T18:51:43.874Z,95508.19
2018-08-05T18:54:12.898Z,95511.55
2018-08-05T18:56:41.879Z,95515.72
2018-08-05T18:59:10.883Z,95515.16
2018-08-05T19:01:40.070Z,95513.28
2018-08-05T19:04:09.128Z,95515.98
2018-08-05T19:06:38.103Z,95518.58
2018-08-05T19:09:08.893Z,95522.47
2018-08-05T19:11:37.922Z,95522.29
2018-08-05T19:14:07.092Z,95529.44
2018-08-05T19:19:15.843Z,95531.55
2018-08-05T19:21:44.866Z,95530.42
2018-08-05T19:24:14.051Z,95540.51
2018-08-05T19:26:43.143Z,95537.11
2018-08-05T19:29:12.149Z,95544.11
2018-08-05T19:31:41.199Z,95544.55
2018-08-05T19:34:10.200Z,95544.28
2018-08-05T19:36:39.283Z,95546.80
2018-08-05T19:39:10.442Z,95546.57
2018-08-05T19:41:39.452Z,95543.80
2018-08-05T19:44:08.573Z,95553.34
2018-08-05T19:46:37.615Z,95551.11
2018-08-05T19:49:06.605Z,95548.78
2018-08-05T19:51:35.630Z,95550.55
2018-08-05T19:54:04.713Z,95546.03
2018-08-05T19:56:33.806Z,95552.84
2018-08-05T19:59:02.822Z,95562.88
2018-08-05T20:01:31.892Z,95554.86
2018-08-05T20:04:00.912Z,95563.42
2018-08-05T20:06:29.927Z,95559.78
2018-08-05T20:08:58.990Z,95559.39
2018-08-05T20:11:28.034Z,95565.49
2018-08-05T20:13:57.268Z,95571.86
2018-08-05T20:16:26.380Z,95568.70
2018-08-05T20:18:55.359Z,95569.22
2018-08-05T20:21:24.580Z,95569.54
2018-08-05T20:23:53.554Z,95573.73
2018-08-05T20:26:22.786Z,95575.64
2018-08-05T20:28:51.778Z,95581.17
2018-08-05T20:31:20.807Z,95575.13
2018-08-05T20:33:50.278Z,95573.80
2018-08-05T20:36:19.299Z,95571.55
2018-08-05T20:38:48.339Z,95571.52
2018-08-05T20:41:17.331Z,95569.86
2018-08-05T20:43:46.353Z,95580.58
2018-08-05T20:46:15.429Z,95576.20
2018-08-05T20:48:44.479Z,95577.42
2018-08-05T20:51:13.614Z,95574.94
2018-08-05T20:53:42.635Z,95581.75
2018-08-05T20:56:11.666Z,95582.91
2018-08-05T20:58:40.732Z,95582.82
2018-08-05T21:01:09.802Z,95572.34
2018-08-05T21:03:38.858Z,95577.95
2018-08-05T21:06:07.809Z,95571.33
2018-08-05T21:08:36.817Z,95571.67
2018-08-05T21:11:05.873Z,95573.68
2018-08-05T21:13:35.896Z,95569.31
2018-08-05T21:16:04.970Z,95574.75
2018-08-05T21:18:33.935Z,95568.99
2018-08-05T21:21:03.130Z,95570.78
2018-08-05T21:23:32.135Z,95571.95
2018-08-05T21:26:01.110Z,95565.55
2018-08-05T21:28:30.083Z,95573.72
2018-08-05T21:30:59.049Z,95569.23
2018-08-05T21:33:28.715Z,95564.59
2018-08-05T21:35:57.953Z,95563.81
2018-08-05T21:38:26.957Z,95568.30
2018-08-05T21:40:55.978Z,95568.83
2018-08-05T21:43:24.971Z,95566.38
2018-08-05T21:45:53.922Z,95564.72
2018-08-05T21:48:22.966Z,95570.53
2018-08-05T21:50:51.963Z,95564.75
2018-08-05T21:53:21.321Z,95567.91
2018-08-05T21:55:50.265Z,95572.02
2018-08-05T21:58:19.261Z,95566.25
2018-08-05T22:00:48.287Z,95570.58
2018-08-05T22:03:17.312Z,95570.24
2018-08-05T22:05:47.287Z,95567.59
2018-08-05T22:08:16.256Z,95569.08
2018-08-05T22:10:45.324Z,95573.17
2018-08-05T22:13:14.295Z,95568.62
2018-08-05T22:15:43.277Z,95569.43
2018-08-05T22:18:12.241Z,95571.33
2018-08-05T22:20:41.255Z,95571.89
2018-08-05T22:23:10.313Z,95579.31
2018-08-05T22:25:39.363Z,95577.80
2018-08-05T22:28:08.386Z,95576.92
2018-08-05T22:30:37.391Z,95574.63
2018-08-05T22:33:06.382Z,95571.70
2018-08-05T22:35:35.402Z,95575.06
2018-08-05T22:38:04.424Z,95573.00
2018-08-05T22:40:33.461Z,95572.55
2018-08-05T22:43:02.419Z,95579.11
2018-08-05T22:45:31.395Z,95575.03
2018-08-05T22:48:06.825Z,95573.36
2018-08-05T22:50:35.834Z,95574.13
2018-08-05T22:53:04.867Z,95580.09
2018-08-05T22:55:33.870Z,95574.38
2018-08-05T22:58:02.995Z,95575.08
2018-08-05T23:00:32.031Z,95581.82
2018-08-05T23:03:01.022Z,95580.28
2018-08-05T23:05:30.045Z,95578.42
2018-08-05T23:07:59.029Z,95573.12
2018-08-05T23:10:28.146Z,95585.05
2018-08-05T23:12:57.118Z,95578.34
2018-08-05T23:15:26.769Z,95576.80
2018-08-05T23:17:56.097Z,95572.50
2018-08-05T23:20:25.099Z,95568.17
2018-08-05T23:22:59.623Z,95570.25
2018-08-05T23:25:28.859Z,95572.80
2018-08-05T23:27:59.046Z,95571.78
2018-08-05T23:30:28.991Z,95569.43
2018-08-05T23:32:58.025Z,95565.67
2018-08-05T23:35:27.059Z,95558.41
2018-08-05T23:37:56.066Z,95561.94
2018-08-05T23:40:26.123Z,95562.16
2018-08-05T23:42:55.194Z,95557.64
2018-08-05T23:45:24.835Z,95559.11
2018-08-05T23:47:53.822Z,95555.25
2018-08-05T23:50:26.753Z,95553.64
2018-08-05T23:52:56.227Z,95556.20
2018-08-05T23:55:25.283Z,95551.33
2018-08-05T23:57:54.443Z,95549.41
